Time;durP1;ratioP1;P1;durP2;ratioP2;P2;SDS_P1;SDS_P2;PMS_P1;PMS_P2;Temp;Humidity;BMP_temperature;BMP_pressure;BME280_temperature;BME280_humidity;BME280_pressure;Samples;Min_cycle;Max_cycle;Signal;HPM_P1;HPM_P2
2023/03/05 00:01:41;;;;;;;2.55;0.95;;;;;;;1.75;100.00;102158.09;5058422;28;20032;-78
2023/03/05 00:04:11;;;;;;;4.07;1.27;;;;;;;1.75;100.00;102152.84;5058385;28;20222;-78
2023/03/05 00:06:36;;;;;;;2.47;1.00;;;;;;;1.74;100.00;102151.13;5060146;28;20042;-78
2023/03/05 00:09:03;;;;;;;3.45;1.08;;;;;;;1.75;100.00;102157.22;5039353;28;20419;-78
2023/03/05 00:11:29;;;;;;;2.47;1.00;;;;;;;1.75;100.00;102149.38;5058842;28;20100;-78
2023/03/05 00:13:55;;;;;;;1.25;0.70;;;;;;;1.74;100.00;102142.41;5060163;28;20028;-78
2023/03/05 00:16:21;;;;;;;3.35;0.60;;;;;;;1.75;100.00;102144.16;5058822;28;21572;-78
2023/03/05 00:18:48;;;;;;;0.82;0.70;;;;;;;1.75;100.00;102137.19;5058407;28;20041;-78
2023/03/05 00:21:28;;;;;;;0.95;0.57;;;;;;;1.75;100.00;102134.56;5058778;28;20115;-78
2023/03/05 00:23:54;;;;;;;0.80;0.77;;;;;;;1.75;100.00;102133.72;5057014;28;20144;-78
2023/03/05 00:26:21;;;;;;;1.35;0.88;;;;;;;1.74;100.00;102140.66;5038972;28;20035;-78
2023/03/05 00:28:51;;;;;;;0.82;0.75;;;;;;;1.74;100.00;102134.59;5029946;28;20035;-78
2023/03/05 00:31:19;;;;;;;0.93;0.80;;;;;;;1.74;100.00;102134.59;5056922;28;20043;-78
2023/03/05 00:33:45;;;;;;;1.58;0.70;;;;;;;1.73;100.00;102131.09;5056123;28;20036;-78
2023/03/05 00:36:10;;;;;;;1.30;0.82;;;;;;;1.73;100.00;102131.09;5058869;28;20040;-78
2023/03/05 00:38:36;;;;;;;1.75;1.02;;;;;;;1.74;100.00;102127.59;5057377;28;20040;-78
2023/03/05 00:41:02;;;;;;;1.00;0.90;;;;;;;1.73;100.00;102123.25;5063089;28;20090;-78
2023/03/05 00:43:28;;;;;;;2.75;0.82;;;;;;;1.72;100.00;102118.88;5057318;28;20582;-78
2023/03/05 00:45:54;;;;;;;0.85;0.70;;;;;;;1.72;100.00;102118.00;5042481;28;20046;-78
2023/03/05 00:48:21;;;;;;;2.28;0.77;;;;;;;1.70;100.00;102117.97;5056849;28;20398;-78
2023/03/05 00:50:47;;;;;;;0.70;0.70;;;;;;;1.68;100.00;102114.47;5057127;28;20115;-78
2023/03/05 00:53:13;;;;;;;3.17;0.98;;;;;;;1.65;100.00;102108.34;5043639;28;20032;-78
2023/03/05 00:55:38;;;;;;;1.08;0.80;;;;;;;1.60;100.00;102113.50;5041392;28;20039;-78
2023/03/05 00:58:04;;;;;;;1.45;0.70;;;;;;;1.58;100.00;102100.44;5056749;28;20060;-78
2023/03/05 01:00:29;;;;;;;3.95;0.80;;;;;;;1.57;100.00;102100.44;5058316;28;20068;-79
2023/03/05 01:02:55;;;;;;;1.58;1.13;;;;;;;1.54;100.00;102095.16;5039868;28;20028;-78
2023/03/05 01:05:20;;;;;;;3.08;0.95;;;;;;;1.53;100.00;102093.41;5055999;28;20040;-79
2023/03/05 01:07:46;;;;;;;2.83;0.95;;;;;;;1.51;100.00;102089.91;5056416;28;20048;-79
2023/03/05 01:10:12;;;;;;;2.85;0.85;;;;;;;1.48;100.00;102083.78;5057673;28;20556;-79
2023/03/05 01:12:38;;;;;;;2.85;1.05;;;;;;;1.48;100.00;102075.94;5039961;28;20028;-78
2023/03/05 01:15:04;;;;;;;2.42;1.10;;;;;;;1.46;100.00;102075.06;5057157;28;20108;-77
2023/03/05 01:17:30;;;;;;;2.50;0.93;;;;;;;1.46;100.00;102071.56;5057567;28;20063;-78
2023/03/05 01:19:56;;;;;;;2.25;1.10;;;;;;;1.45;100.00;102075.91;5058466;28;20119;-77
2023/03/05 01:22:21;;;;;;;3.60;1.40;;;;;;;1.45;100.00;102067.19;5057813;28;20041;-78
2023/03/05 01:24:47;;;;;;;3.38;1.48;;;;;;;1.44;100.00;102057.63;5055754;28;20310;-78
2023/03/05 01:27:13;;;;;;;2.63;1.00;;;;;;;1.44;100.00;102055.91;5056230;28;20124;-78
2023/03/05 01:29:38;;;;;;;1.58;1.00;;;;;;;1.42;100.00;102051.53;5055917;28;20047;-79
2023/03/05 01:32:04;;;;;;;3.13;0.98;;;;;;;1.40;100.00;102053.22;5057638;28;20036;-78
2023/03/05 01:34:29;;;;;;;3.67;1.10;;;;;;;1.40;100.00;102053.22;5057058;28;20092;-79
2023/03/05 01:36:55;;;;;;;4.20;1.33;;;;;;;1.40;100.00;102046.28;5055717;28;20060;-79
2023/03/05 01:39:20;;;;;;;1.52;0.90;;;;;;;1.41;100.00;102039.34;5072838;28;20047;-79
2023/03/05 01:41:46;;;;;;;0.80;0.77;;;;;;;1.40;100.00;102041.06;5056931;28;20075;-79
2023/03/05 01:44:31;;;;;;;2.33;1.08;;;;;;;1.38;100.00;102032.34;5045756;28;20068;-79
2023/03/05 01:46:56;;;;;;;0.70;0.68;;;;;;;1.40;100.00;102037.56;5057084;28;20050;-79
2023/03/05 01:49:31;;;;;;;0.90;0.60;;;;;;;1.42;100.00;102034.09;5056456;28;20032;-79
2023/03/05 01:52:12;;;;;;;5.20;1.02;;;;;;;1.45;100.00;102049.81;5056856;28;20676;-78
2023/03/05 01:54:42;;;;;;;0.90;0.90;;;;;;;1.46;100.00;102062.00;5056081;28;20836;-78
2023/03/05 01:57:16;;;;;;;3.97;1.38;;;;;;;1.44;100.00;102058.50;5056984;28;20032;-78
2023/03/05 01:59:44;;;;;;;1.40;0.90;;;;;;;1.38;100.00;102061.03;5055690;28;20051;-78
2023/03/05 02:02:09;;;;;;;1.67;0.80;;;;;;;1.37;100.00;102045.34;5055416;28;20054;-78
2023/03/05 02:04:49;;;;;;;0.98;0.85;;;;;;;1.35;100.00;102037.50;5049144;28;20566;-78
2023/03/05 02:07:15;;;;;;;1.55;0.73;;;;;;;1.32;100.00;102032.25;5055919;28;20770;-78
2023/03/05 02:09:41;;;;;;;1.45;0.75;;;;;;;1.31;100.00;102030.50;5026568;28;20040;-78
2023/03/05 02:12:07;;;;;;;2.50;0.85;;;;;;;1.28;100.00;102015.69;5049189;28;20684;-79
2023/03/05 02:14:33;;;;;;;1.75;0.90;;;;;;;1.26;100.00;102014.81;5055147;28;20043;-78
2023/03/05 02:16:59;;;;;;;1.48;1.20;;;;;;;1.26;100.00;102008.69;5056641;28;20414;-79
2023/03/05 02:19:25;;;;;;;0.80;0.80;;;;;;;1.23;100.00;102001.72;5056744;28;20036;-79
2023/03/05 02:21:50;;;;;;;0.85;0.85;;;;;;;1.22;100.00;101998.22;5055530;28;20048;-78
2023/03/05 02:24:30;;;;;;;1.73;1.08;;;;;;;1.21;100.00;102003.44;5056549;28;20046;-78
2023/03/05 02:26:55;;;;;;;2.25;1.20;;;;;;;1.19;100.00;101998.19;5055335;28;20151;-79
2023/03/05 02:29:21;;;;;;;2.58;1.10;;;;;;;1.17;100.00;101993.81;5056032;28;20058;-78
2023/03/05 02:31:46;;;;;;;3.92;1.10;;;;;;;1.15;100.00;101988.56;5039102;28;20036;-79
2023/03/05 02:34:12;;;;;;;1.10;0.90;;;;;;;1.12;100.00;101983.31;5056461;28;20093;-78
2023/03/05 02:36:37;;;;;;;2.67;1.00;;;;;;;1.10;100.00;101985.03;5054754;28;20032;-78
2023/03/05 02:39:03;;;;;;;0.93;0.93;;;;;;;1.06;100.00;101988.44;5056357;28;20048;-78
2023/03/05 02:41:29;;;;;;;1.38;1.10;;;;;;;1.03;100.00;101983.22;5054161;28;20132;-79
2023/03/05 02:43:55;;;;;;;1.75;1.30;;;;;;;1.00;100.00;101977.94;5053875;28;20487;-79
2023/03/05 02:46:20;;;;;;;1.45;1.33;;;;;;;0.98;100.00;101983.13;5044470;28;20519;-78
2023/03/05 02:48:46;;;;;;;3.05;1.20;;;;;;;0.95;100.00;101975.28;5056142;28;20174;-79
2023/03/05 02:51:11;;;;;;;1.73;1.10;;;;;;;0.96;100.00;101978.78;5055033;28;20044;-78
2023/03/05 02:53:37;;;;;;;2.17;1.08;;;;;;;0.94;100.00;101974.38;5054321;28;20040;-78
2023/03/05 02:56:03;;;;;;;1.52;1.02;;;;;;;0.91;100.00;101969.16;5056238;28;20044;-79
2023/03/05 02:58:29;;;;;;;2.13;1.35;;;;;;;0.91;100.00;101968.25;5055661;28;20040;-78
2023/03/05 03:00:54;;;;;;;2.55;1.50;;;;;;;0.91;100.00;101958.72;5054475;28;20454;-78
2023/03/05 03:03:20;;;;;;;1.73;1.27;;;;;;;0.92;100.00;101968.28;5054354;28;20048;-79
2023/03/05 03:05:45;;;;;;;1.40;1.30;;;;;;;0.94;100.00;101963.97;5053836;28;20035;-79
2023/03/05 03:08:11;;;;;;;2.38;0.80;;;;;;;0.98;100.00;101964.00;5056077;28;20121;-78
2023/03/05 03:10:37;;;;;;;2.38;0.90;;;;;;;1.01;100.00;101953.59;5056031;28;20105;-79
2023/03/05 03:13:02;;;;;;;0.65;0.65;;;;;;;1.05;100.00;101951.03;5057656;28;20028;-78
2023/03/05 03:15:28;;;;;;;1.35;0.68;;;;;;;1.10;100.00;101938.09;5053739;28;20054;-78
2023/03/05 03:17:54;;;;;;;1.50;0.70;;;;;;;1.13;100.00;101929.41;5056654;28;20036;-77
2023/03/05 03:20:20;;;;;;;0.82;0.80;;;;;;;1.13;100.00;101913.78;5059605;28;20237;-77
2023/03/05 03:22:46;;;;;;;0.98;0.90;;;;;;;1.12;100.00;101910.28;5058354;28;20245;-77
2023/03/05 03:25:17;;;;;;;1.98;1.00;;;;;;;1.12;100.00;101910.28;5043229;28;20649;-77
2023/03/05 03:27:42;;;;;;;1.00;0.88;;;;;;;1.12;100.00;101902.44;5058035;28;20176;-77
2023/03/05 03:30:10;;;;;;;1.48;0.90;;;;;;;1.11;100.00;101911.13;5042639;28;20503;-78
2023/03/05 03:32:36;;;;;;;3.28;1.10;;;;;;;1.10;100.00;101898.97;5059324;28;20106;-78
2023/03/05 03:35:02;;;;;;;2.53;1.15;;;;;;;1.09;100.00;101897.19;5042292;28;20056;-77
2023/03/05 03:37:28;;;;;;;1.98;1.30;;;;;;;1.06;100.00;101891.94;5057778;28;20170;-78
2023/03/05 03:39:54;;;;;;;2.60;1.40;;;;;;;1.02;100.00;101893.63;5057425;28;20035;-77
2023/03/05 03:42:21;;;;;;;4.15;1.40;;;;;;;1.02;100.00;101897.97;5057564;28;20465;-77
2023/03/05 03:44:47;;;;;;;1.95;1.02;;;;;;;0.99;100.00;101897.94;5043464;28;20885;-77
2023/03/05 03:47:13;;;;;;;2.33;1.00;;;;;;;0.93;100.00;101891.81;5046756;28;20048;-77
2023/03/05 03:49:38;;;;;;;3.28;1.08;;;;;;;0.91;100.00;101884.81;5058323;28;20046;-77
2023/03/05 03:52:04;;;;;;;1.63;1.27;;;;;;;0.86;100.00;101879.53;5064151;28;20054;-77
2023/03/05 03:54:30;;;;;;;4.55;1.15;;;;;;;0.82;100.00;101875.16;5059259;28;20479;-78
2023/03/05 03:56:55;;;;;;;1.33;0.88;;;;;;;0.80;100.00;101877.75;5030961;28;20032;-78
2023/03/05 03:59:21;;;;;;;3.75;0.82;;;;;;;0.78;100.00;101883.81;5058228;28;20033;-78
2023/03/05 04:01:47;;;;;;;1.95;0.73;;;;;;;0.74;100.00;101888.09;5043340;28;20085;-78
2023/03/05 04:04:13;;;;;;;0.80;0.80;;;;;;;0.73;100.00;101880.25;5059145;28;20465;-78
2023/03/05 04:06:38;;;;;;;1.33;1.17;;;;;;;0.72;100.00;101886.34;5057331;28;20733;-78
2023/03/05 04:09:04;;;;;;;4.38;1.45;;;;;;;0.70;100.00;101890.66;5057662;28;20044;-78
2023/03/05 04:11:30;;;;;;;1.85;0.95;;;;;;;0.69;100.00;101887.16;5057137;28;20052;-78
2023/03/05 04:13:56;;;;;;;1.90;0.88;;;;;;;0.72;100.00;101879.41;5057781;28;20036;-78
2023/03/05 04:16:22;;;;;;;2.17;1.23;;;;;;;0.74;100.00;101875.06;5056490;28;20570;-79
2023/03/05 04:18:47;;;;;;;3.60;1.10;;;;;;;0.78;100.00;101869.06;5058601;28;20196;-78
2023/03/05 04:21:13;;;;;;;2.88;0.80;;;;;;;0.81;100.00;101866.47;5049370;28;20670;-78
2023/03/05 04:23:39;;;;;;;2.80;0.90;;;;;;;0.81;100.00;101865.56;5059830;28;20032;-78
2023/03/05 04:26:05;;;;;;;1.52;0.90;;;;;;;0.81;100.00;101863.84;5058851;28;20036;-78
2023/03/05 04:28:31;;;;;;;5.85;1.00;;;;;;;0.84;100.00;101865.63;5056970;28;20625;-78
2023/03/05 04:30:56;;;;;;;1.10;0.90;;;;;;;0.83;100.00;101857.78;5059043;28;20378;-78
2023/03/05 04:33:22;;;;;;;5.30;1.00;;;;;;;0.84;100.00;101854.31;5057641;28;20107;-78
2023/03/05 04:35:48;;;;;;;1.08;0.80;;;;;;;0.82;100.00;101856.91;5059522;28;20494;-79
2023/03/05 04:38:13;;;;;;;2.67;1.20;;;;;;;0.81;100.00;101850.81;5059346;28;20578;-79
2023/03/05 04:40:39;;;;;;;5.95;1.52;;;;;;;0.80;100.00;101853.41;5043349;28;20040;-77
2023/03/05 04:43:05;;;;;;;1.00;0.80;;;;;;;0.81;100.00;101857.75;5057169;28;20106;-77
2023/03/05 04:45:31;;;;;;;2.88;1.15;;;;;;;0.79;100.00;101851.66;5058745;28;20389;-78
2023/03/05 04:47:57;;;;;;;4.82;1.17;;;;;;;0.78;100.00;101853.41;5056861;28;20048;-79
2023/03/05 04:50:22;;;;;;;2.80;0.93;;;;;;;0.79;100.00;101854.25;5042350;28;20040;-79
2023/03/05 04:52:48;;;;;;;1.27;1.00;;;;;;;0.79;100.00;101854.25;5058345;28;20511;-79
2023/03/05 04:55:15;;;;;;;2.92;1.00;;;;;;;0.79;100.00;101851.66;5057063;28;20043;-78
2023/03/05 04:57:40;;;;;;;3.38;1.67;;;;;;;0.77;100.00;101846.41;5056466;28;20685;-78
2023/03/05 05:00:13;;;;;;;3.20;1.15;;;;;;;0.78;100.00;101852.50;5059667;28;20040;-78
2023/03/05 05:02:46;;;;;;;2.80;1.40;;;;;;;0.76;100.00;101843.81;5058338;28;20035;-77
2023/03/05 05:05:20;;;;;;;3.95;1.17;;;;;;;0.75;100.00;101839.44;5056044;28;20040;-78
2023/03/05 05:07:46;;;;;;;0.95;0.90;;;;;;;0.75;100.00;101831.59;5027976;28;20024;-77
2023/03/05 05:10:12;;;;;;;1.63;0.80;;;;;;;0.75;100.00;101840.31;5060504;28;20514;-77
2023/03/05 05:12:38;;;;;;;0.90;0.90;;;;;;;0.75;100.00;101842.94;5038755;28;20040;-76
2023/03/05 05:15:05;;;;;;;1.48;1.10;;;;;;;0.77;100.00;101840.34;5055999;28;20042;-79
2023/03/05 05:17:31;;;;;;;3.28;1.35;;;;;;;0.79;100.00;101839.50;5045532;28;20047;-79
2023/03/05 05:19:58;;;;;;;0.70;0.70;;;;;;;0.81;100.00;101847.31;5058037;28;20047;-79
2023/03/05 05:22:24;;;;;;;1.27;0.70;;;;;;;0.84;100.00;101852.59;5058140;28;20044;-79
2023/03/05 05:24:49;;;;;;;1.20;0.77;;;;;;;0.84;100.00;101842.16;5057028;28;20047;-79
2023/03/05 05:27:15;;;;;;;0.70;0.70;;;;;;;0.89;100.00;101844.81;5055260;28;20028;-79
2023/03/05 05:29:40;;;;;;;1.45;0.70;;;;;;;0.89;100.00;101829.16;5058531;28;20035;-79
2023/03/05 05:32:06;;;;;;;4.13;0.70;;;;;;;0.88;100.00;101825.66;5057369;28;20506;-79
2023/03/05 05:34:32;;;;;;;2.17;0.60;;;;;;;0.88;100.00;101827.41;5045186;28;20036;-77
2023/03/05 05:36:57;;;;;;;2.95;1.10;;;;;;;0.87;100.00;101823.94;5040946;28;20028;-77
2023/03/05 05:39:23;;;;;;;3.40;1.08;;;;;;;0.86;100.00;101826.53;5054596;28;20044;-77
2023/03/05 05:41:50;;;;;;;2.30;0.80;;;;;;;0.85;100.00;101819.56;5054128;28;20037;-77
2023/03/05 05:44:15;;;;;;;2.90;0.93;;;;;;;0.83;100.00;101814.34;5047662;28;20043;-77
2023/03/05 05:46:41;;;;;;;1.48;0.70;;;;;;;0.82;100.00;101815.22;5055074;28;20053;-77
2023/03/05 05:49:06;;;;;;;2.63;1.23;;;;;;;0.81;100.00;101816.03;5055007;28;20722;-77
2023/03/05 05:51:32;;;;;;;1.77;0.95;;;;;;;0.80;100.00;101814.28;5057176;28;20041;-77
2023/03/05 05:53:57;;;;;;;3.10;0.93;;;;;;;0.81;100.00;101813.44;5039410;28;20047;-77
2023/03/05 05:56:23;;;;;;;4.53;1.20;;;;;;;0.82;100.00;101807.38;5009783;28;20118;-77
2023/03/05 05:58:49;;;;;;;0.68;0.68;;;;;;;0.81;100.00;101806.50;5056312;28;20592;-76
2023/03/05 06:01:31;;;;;;;1.27;0.90;;;;;;;0.83;100.00;101803.03;5057666;28;20481;-77
2023/03/05 06:03:56;;;;;;;1.20;1.13;;;;;;;0.83;100.00;101803.91;5057306;28;20032;-77
2023/03/05 06:06:23;;;;;;;1.67;0.93;;;;;;;0.81;100.00;101811.72;5055931;28;20589;-77
2023/03/05 06:08:50;;;;;;;1.17;0.90;;;;;;;0.81;100.00;101811.72;5057236;28;20117;-79
2023/03/05 06:11:16;;;;;;;1.25;0.80;;;;;;;0.77;100.00;101807.31;5055429;28;20162;-77
2023/03/05 06:13:42;;;;;;;3.80;1.23;;;;;;;0.76;100.00;101809.91;5054703;28;20040;-77
2023/03/05 06:16:11;;;;;;;2.38;1.20;;;;;;;0.75;100.00;101802.94;5057617;28;20544;-77
2023/03/05 06:18:37;;;;;;;1.15;1.13;;;;;;;0.72;100.00;101795.09;5056893;28;20029;-77
2023/03/05 06:21:08;;;;;;;3.33;1.30;;;;;;;0.71;100.00;101798.56;5055021;28;20522;-77
2023/03/05 06:23:34;;;;;;;1.65;0.90;;;;;;;0.68;100.00;101802.00;5056207;28;20028;-76
2023/03/05 06:26:01;;;;;;;4.28;1.10;;;;;;;0.66;100.00;101806.34;5056950;28;20786;-78
2023/03/05 06:28:27;;;;;;;2.88;1.10;;;;;;;0.64;100.00;101803.69;5056934;28;20052;-79
2023/03/05 06:31:20;;;;;;;5.55;1.48;;;;;;;0.63;100.00;101806.28;5054597;28;20804;-77
2023/03/05 06:33:49;;;;;;;2.80;1.33;;;;;;;0.61;100.00;101798.44;5055128;28;20033;-77
2023/03/05 06:36:16;;;;;;;1.38;1.08;;;;;;;0.62;100.00;101804.53;5055489;28;20645;-77
2023/03/05 06:38:42;;;;;;;2.30;1.33;;;;;;;0.62;100.00;101805.44;5056471;28;20056;-77
2023/03/05 06:41:13;;;;;;;3.05;0.98;;;;;;;0.61;100.00;101808.88;5039755;28;20045;-79
2023/03/05 06:43:41;;;;;;;2.30;1.13;;;;;;;0.60;100.00;101795.84;5055855;28;20040;-77
2023/03/05 06:46:10;;;;;;;2.75;1.02;;;;;;;0.59;100.00;101799.31;5053149;28;20042;-78
2023/03/05 06:48:35;;;;;;;3.88;1.10;;;;;;;0.59;100.00;101788.88;5037389;28;20132;-79
2023/03/05 06:51:01;;;;;;;3.78;1.38;;;;;;;0.57;100.00;101798.38;5055785;28;20036;-79
2023/03/05 06:53:27;;;;;;;13.45;5.43;;;;;;;0.58;100.00;101803.63;5060723;28;20071;-79
2023/03/05 06:55:53;;;;;;;13.13;8.07;;;;;;;0.58;100.00;101798.41;5044939;28;20036;-79
2023/03/05 06:58:19;;;;;;;5.28;3.88;;;;;;;0.58;100.00;101795.81;5058618;28;20467;-78
2023/03/05 07:00:45;;;;;;;3.35;2.17;;;;;;;0.60;100.00;101801.91;5059199;28;20454;-78
2023/03/05 07:03:11;;;;;;;3.33;3.03;;;;;;;0.60;100.00;101796.69;5058082;28;20047;-79
2023/03/05 07:05:42;;;;;;;4.18;2.67;;;;;;;0.60;100.00;101796.69;5058687;28;20035;-79
2023/03/05 07:08:08;;;;;;;2.72;2.50;;;;;;;0.62;100.00;101799.31;5058013;28;20034;-79
2023/03/05 07:10:41;;;;;;;7.68;6.10;;;;;;;0.63;100.00;101791.53;5059727;28;20031;-78
2023/03/05 07:13:07;;;;;;;8.27;7.47;;;;;;;0.65;100.00;101784.59;5058759;28;20632;-78
2023/03/05 07:15:33;;;;;;;8.80;4.35;;;;;;;0.66;100.00;101788.94;5059584;28;20040;-78
2023/03/05 07:17:59;;;;;;;4.43;3.70;;;;;;;0.69;100.00;101776.81;5041371;28;20499;-78
2023/03/05 07:20:24;;;;;;;2.20;2.00;;;;;;;0.73;100.00;101778.59;5060089;28;20025;-78
2023/03/05 07:22:50;;;;;;;3.13;2.60;;;;;;;0.75;100.00;101774.25;5057264;28;20469;-78
2023/03/05 07:25:20;;;;;;;2.53;1.92;;;;;;;0.78;100.00;101777.78;5043617;28;20133;-78
2023/03/05 07:27:46;;;;;;;1.40;1.30;;;;;;;0.81;100.00;101774.31;5041925;28;20066;-78
2023/03/05 07:30:12;;;;;;;2.33;1.23;;;;;;;0.83;100.00;101780.44;5058443;28;20028;-78
2023/03/05 07:32:38;;;;;;;2.15;1.27;;;;;;;0.87;100.00;101768.31;5059856;28;21108;-78
2023/03/05 07:35:04;;;;;;;1.60;1.50;;;;;;;0.89;100.00;101772.69;5059856;28;20051;-79
2023/03/05 07:37:29;;;;;;;3.42;1.40;;;;;;;0.93;100.00;101773.59;5059598;28;20032;-78
2023/03/05 07:39:55;;;;;;;3.55;1.30;;;;;;;0.99;100.00;101791.03;5057699;28;20163;-78
2023/03/05 07:42:20;;;;;;;1.63;1.10;;;;;;;1.01;100.00;101771.03;5057906;28;20503;-78
2023/03/05 07:44:46;;;;;;;4.05;1.67;;;;;;;1.06;100.00;101779.78;5059232;28;20067;-79
2023/03/05 07:47:13;;;;;;;2.30;1.58;;;;;;;1.10;100.00;101772.84;5047476;28;20093;-78
2023/03/05 07:49:40;;;;;;;2.30;1.40;;;;;;;1.14;100.00;101772.91;5042958;28;20036;-79
2023/03/05 07:52:06;;;;;;;3.58;1.50;;;;;;;1.19;100.00;101776.41;5056621;28;20499;-78
2023/03/05 07:54:36;;;;;;;3.40;1.55;;;;;;;1.25;100.00;101769.50;5057863;28;20032;-78
2023/03/05 07:57:03;;;;;;;2.03;1.50;;;;;;;1.30;100.00;101770.44;5058073;28;20034;-79
2023/03/05 07:59:28;;;;;;;2.63;1.50;;;;;;;1.34;100.00;101765.25;5059528;28;20268;-78
2023/03/05 08:01:54;;;;;;;3.03;1.45;;;;;;;1.40;100.00;101756.59;5058075;28;20047;-78
2023/03/05 08:04:19;;;;;;;2.90;1.60;;;;;;;1.47;100.00;101770.56;5056919;28;20027;-78
2023/03/05 08:06:45;;;;;;;3.60;1.42;;;;;;;1.52;100.00;101774.06;5047099;28;20044;-78
2023/03/05 08:09:11;;;;;;;7.55;1.67;;;;;;;1.59;100.00;101767.16;5058710;28;20441;-78
2023/03/05 08:11:38;;;;;;;3.55;1.38;;;;;;;1.67;100.00;101769.81;5045013;28;20468;-78
2023/03/05 08:14:04;;;;;;;6.53;1.50;;;;;;;1.76;100.00;101767.28;5057908;28;20032;-78
2023/03/05 08:16:30;;;;;;;4.63;2.28;;;;;;;1.84;100.00;101764.69;5057592;28;20044;-78
2023/03/05 08:18:56;;;;;;;3.13;1.10;;;;;;;1.92;100.00;101760.41;5056867;28;20031;-78
2023/03/05 08:21:32;;;;;;;2.97;1.80;;;;;;;2.01;100.00;101768.28;5022799;28;20031;-78
2023/03/05 08:23:58;;;;;;;4.15;1.40;;;;;;;2.09;100.00;101765.72;5057906;28;20098;-78
2023/03/05 08:26:26;;;;;;;2.47;1.10;;;;;;;2.16;100.00;101762.25;5062378;28;20039;-79
2023/03/05 08:28:52;;;;;;;3.13;1.10;;;;;;;2.24;100.00;101754.44;5046930;28;20110;-78
2023/03/05 08:31:20;;;;;;;3.20;0.93;;;;;;;2.31;100.00;101750.13;5059251;28;20115;-78
2023/03/05 08:33:48;;;;;;;2.08;1.02;;;;;;;2.40;100.00;101749.28;5056732;28;20017;-78
2023/03/05 08:36:14;;;;;;;4.28;1.00;;;;;;;2.48;100.00;101744.94;5057547;28;20467;-78
2023/03/05 08:38:40;;;;;;;3.80;1.05;;;;;;;2.56;100.00;101748.44;5056961;28;20059;-78
2023/03/05 08:41:06;;;;;;;2.90;1.50;;;;;;;2.65;100.00;101746.72;5058420;28;20108;-78
2023/03/05 08:43:32;;;;;;;4.38;1.10;;;;;;;2.73;100.00;101739.78;5055762;28;20813;-78
2023/03/05 08:46:01;;;;;;;3.97;1.00;;;;;;;2.81;100.00;101739.78;5057344;28;20043;-78
2023/03/05 08:48:27;;;;;;;2.83;0.90;;;;;;;2.87;100.00;101742.41;5057554;28;20031;-79
2023/03/05 08:50:53;;;;;;;1.63;0.70;;;;;;;2.95;100.00;101747.66;5057167;28;21842;-79
2023/03/05 08:53:19;;;;;;;3.28;0.80;;;;;;;3.01;100.00;101745.03;5057870;28;20123;-79
2023/03/05 08:55:55;;;;;;;2.80;0.90;;;;;;;3.06;100.00;101748.50;5058346;28;20035;-79
2023/03/05 08:58:21;;;;;;;3.95;0.98;;;;;;;3.12;100.00;101743.28;5046400;28;20122;-79
2023/03/05 09:00:46;;;;;;;2.67;0.90;;;;;;;3.21;100.00;101734.56;5058671;28;20892;-79
2023/03/05 09:03:12;;;;;;;1.40;0.90;;;;;;;3.31;100.00;101738.03;5055728;28;20621;-79
2023/03/05 09:05:37;;;;;;;2.47;0.93;;;;;;;3.34;100.00;101735.44;5058111;28;20113;-79
2023/03/05 09:08:03;;;;;;;3.72;0.93;;;;;;;3.39;100.00;101728.44;5054530;28;20047;-79
2023/03/05 09:10:28;;;;;;;2.45;0.80;;;;;;;3.44;100.00;101728.44;5057585;28;20052;-79
2023/03/05 09:12:54;;;;;;;1.20;0.63;;;;;;;3.48;100.00;101731.94;5055069;28;20407;-79
2023/03/05 09:15:19;;;;;;;1.40;0.60;;;;;;;3.55;100.00;101723.19;5056580;28;20036;-79
2023/03/05 09:17:45;;;;;;;4.10;0.70;;;;;;;3.63;100.00;101720.53;5057872;28;20119;-79
2023/03/05 09:20:12;;;;;;;2.55;0.75;;;;;;;3.70;100.00;101727.50;5057762;28;20037;-79
2023/03/05 09:22:38;;;;;;;2.58;0.80;;;;;;;3.72;100.00;101717.91;5053958;28;20260;-77
2023/03/05 09:25:04;;;;;;;2.97;0.70;;;;;;;3.75;100.00;101719.63;5041127;28;20957;-77
2023/03/05 09:27:34;;;;;;;3.13;0.70;;;;;;;3.75;100.00;101719.63;5055709;28;20071;-78
2023/03/05 09:30:00;;;;;;;5.75;1.10;;;;;;;3.76;100.00;101718.78;5044511;28;21082;-77
2023/03/05 09:32:25;;;;;;;1.92;0.70;;;;;;;3.76;100.00;101717.00;5053513;28;20758;-78
2023/03/05 09:34:51;;;;;;;4.45;1.17;;;;;;;3.76;100.00;101719.63;5042926;28;20867;-79
2023/03/05 09:37:16;;;;;;;5.57;1.67;;;;;;;3.77;100.00;101715.28;5057167;28;20036;-79
2023/03/05 09:39:42;;;;;;;2.85;1.00;;;;;;;3.73;100.00;101713.53;5054915;28;20062;-79
2023/03/05 09:42:35;;;;;;;1.63;0.77;;;;;;;3.73;100.00;101716.16;5056701;28;20093;-79
2023/03/05 09:45:25;;;;;;;0.60;0.55;;;;;;;3.74;100.00;101697.81;5056867;28;20553;-79
2023/03/05 09:47:57;;;;;;;5.53;0.88;;;;;;;3.78;100.00;101698.69;5055738;28;20119;-78
2023/03/05 09:50:37;;;;;;;2.78;0.77;;;;;;;3.86;100.00;101694.28;5058487;28;20628;-79
2023/03/05 09:53:21;;;;;;;1.13;0.50;;;;;;;3.93;100.00;101698.59;5057350;28;20113;-79
2023/03/05 09:55:52;;;;;;;0.70;0.55;;;;;;;4.03;100.00;101693.34;5056878;28;20050;-79
2023/03/05 09:58:45;;;;;;;1.13;0.55;;;;;;;4.14;100.00;101693.28;5054933;28;20071;-79
2023/03/05 10:01:32;;;;;;;2.10;1.00;;;;;;;4.23;100.00;101695.84;5055355;28;20037;-79
2023/03/05 10:04:16;;;;;;;3.33;0.70;;;;;;;4.29;100.00;101692.31;5053389;28;20691;-79
2023/03/05 10:06:53;;;;;;;0.63;0.50;;;;;;;4.25;100.00;101694.09;5055003;28;20131;-79
2023/03/05 10:09:40;;;;;;;2.15;0.55;;;;;;;4.14;100.00;101691.53;5055606;28;20093;-79
2023/03/05 10:12:26;;;;;;;0.60;0.60;;;;;;;4.03;100.00;101688.09;5057566;28;20497;-79
2023/03/05 10:14:52;;;;;;;2.50;0.60;;;;;;;3.94;100.00;101687.25;5057763;28;20044;-79
2023/03/05 10:17:33;;;;;;;1.92;0.60;;;;;;;3.92;100.00;101689.00;5054909;28;20608;-79
2023/03/05 10:20:45;;;;;;;1.58;0.60;;;;;;;3.92;100.00;101670.66;5040876;28;20040;-79
2023/03/05 10:23:35;;;;;;;1.83;0.60;;;;;;;3.96;100.00;101681.16;5048712;28;20414;-79
2023/03/05 10:26:03;;;;;;;2.60;1.00;;;;;;;3.97;100.00;101673.25;5044664;28;20028;-79
2023/03/05 10:28:52;;;;;;;3.72;1.33;;;;;;;4.00;100.00;101669.75;5054728;28;20521;-79
2023/03/05 10:31:55;;;;;;;3.97;0.88;;;;;;;4.03;100.00;101661.91;5036391;28;20527;-79
2023/03/05 10:34:40;;;;;;;2.67;1.10;;;;;;;4.05;100.00;101661.00;5056464;28;20441;-79
2023/03/05 10:38:00;;;;;;;1.25;1.00;;;;;;;4.07;100.00;101658.38;5051959;27;1297763;-78
2023/03/05 10:40:31;;;;;;;4.25;1.08;;;;;;;4.13;100.00;101658.34;4979241;28;20073;-78
2023/03/05 10:43:09;;;;;;;2.30;1.05;;;;;;;4.24;100.00;101647.78;5043147;28;20064;-78
2023/03/05 10:45:35;;;;;;;3.10;0.98;;;;;;;4.37;100.00;101645.09;5075049;28;20180;-78
2023/03/05 10:48:27;;;;;;;3.95;0.82;;;;;;;4.49;100.00;101645.88;5051069;28;20447;-78
2023/03/05 10:51:07;;;;;;;1.48;1.00;;;;;;;4.52;100.00;101644.13;5015015;28;20102;-78
2023/03/05 10:53:34;;;;;;;1.60;0.80;;;;;;;4.46;100.00;101638.03;5058933;28;20055;-78
2023/03/05 10:56:01;;;;;;;0.93;0.70;;;;;;;4.43;100.00;101643.31;5059125;28;20047;-77
2023/03/05 10:58:27;;;;;;;3.90;1.08;;;;;;;4.41;100.00;101631.09;5077741;28;20032;-78
2023/03/05 11:01:24;;;;;;;3.35;1.05;;;;;;;4.46;100.00;101630.16;5078112;28;20033;-77
2023/03/05 11:03:59;;;;;;;4.35;1.50;;;;;;;4.53;100.00;101619.63;5058515;28;20066;-77
2023/03/05 11:06:31;;;;;;;5.70;1.90;;;;;;;4.57;100.00;101619.59;5078454;28;20619;-77
2023/03/05 11:09:20;;;;;;;10.23;2.47;;;;;;;4.66;100.00;101610.78;5058675;28;20036;-77
2023/03/05 11:12:00;;;;;;;8.25;1.88;;;;;;;4.78;100.00;101616.81;5076063;28;20044;-77
2023/03/05 11:14:32;;;;;;;10.77;2.13;;;;;;;4.81;100.00;101611.53;5077841;28;20032;-77
2023/03/05 11:16:59;;;;;;;5.15;1.83;;;;;;;4.88;100.00;101602.72;5061423;28;20032;-77
2023/03/05 11:19:31;;;;;;;5.72;1.70;;;;;;;4.93;100.00;101603.56;5058335;28;20032;-77
2023/03/05 11:22:19;;;;;;;8.13;2.40;;;;;;;4.89;100.00;101609.69;5060038;28;20070;-77
2023/03/05 11:25:13;;;;;;;6.25;2.20;;;;;;;4.80;100.00;101601.94;5079439;28;20032;-77
2023/03/05 11:27:45;;;;;;;5.75;1.77;;;;;;;4.73;100.00;101595.84;5076838;28;20060;-77
2023/03/05 11:30:24;;;;;;;3.08;1.98;;;;;;;4.70;100.00;101596.78;5078457;28;20044;-77
2023/03/05 11:33:06;;;;;;;3.60;1.50;;;;;;;4.69;100.00;101586.28;5059534;28;20032;-77